TAF and METAR

METAR for Brest Airport

UMBB 161200Z 02004MPS 9999 BKN043 24/14 Q1019 R29/CLRD// NOSIG
Report created 16. aug 14:00
wind 8 knots from NNE (020°) visibility > 10km broken clouds (~75% cover) at 4300 feet Temperature 24° with dewpoint at 14° (Humidity 53.62%) Pressure 1019 hPa

TAF for Brest Airport

TAF UMBB 161105Z 1612/1621 01005MPS 9999 SCT020 TX25/1612Z TN20/1621Z
Report created 16. aug 13:05

between 16. aug 14:00 - 16. aug 23:00

wind 10 knots from N (010°) visibility > 10km scattered clouds (~50% cover) at 2000 feet Max temperature 25° expected today at around 14 o'clock Min temperature 20° expected today at around 23 o'clock